Maxwell Air Force Base
KMXF : now visible

Airfield :











YOU CAN JOIN US ON...

 
LOGIN :

Register | Disclaimer

   EN    FR    IT 

 









Legend :    VFR   Marginal VFR   IFR   Intensive IFR   Very Intensive IFR
Visi :
Ceiling :
>= 8 km
>= 3000ft
5 to 8 km
1000 to 3000 ft
1500m to 5 km
500 to 1000 ft
800 to 1500m
200 to 500 ft
< 800m
< 200 ft
Symbols :   Thunderstorms  Fog  Heavy snow  Heavy precipitations  Wind > 20 kt






- Airport Elevation : 171 ft


KMXF - Maxwell Air Force Base

CURRENT METAR :
  • 171255Z AUTO 16004KT 10SM OVC180 19/16 A3010 RMK AO2 SLP194 T01900160

EXPIRED METARs :
  • 171155Z AUTO 00000KT 10SM BKN180 17/15 A3009 RMK AO2 SLP191 T01690149 10187 20166 52009
  • 171055Z AUTO 28003KT 10SM SCT170 SCT190 18/15 A3008 RMK AO2 SLP188 T01750146
  • 170955Z AUTO 00000KT 10SM SCT190 18/14 A3007 RMK AO2 SLP184 T01790140
  • 170855Z AUTO 18004KT 10SM SCT140 BKN160 BKN180 17/14 A3006 RMK AO2 SLP181 T01730144 55000

TAF TAF KMXF
Valid from the 17 at 11:00 until the 18 at 17:00 UTC


171100Z 1711/1817 VRB06KT 8000 BR FEW160 510033 QNH3008INS
BECMG 1716/1717 21012KT 9999 NSW BKN018 510033 QNH3012INS
BECMG 1717/1718 21010G15KT 9999 FEW030 QNH3001INS
BECMG 1800/1801 VRB06KT 9999 BKN030 QNH3003INS
BECMG 1809/1810 VRB06KT 8000 BR OVC003 QNH3005INS
BECMG 1815/1816 VRB06KT 8000 BR BKN018 QNH3009INS TX26/1721Z TN16/1712Z
KZTL FIR / North America



MET'MAP, your aeronautical weather chart ! - Copyright ORBIFLY December 2007 - Disclaimer

ORBIFLY MET'MAP TEAM :

Programming & Development : Alexandra Zaïnal
Original concept : Baudouin d'Aumeries
Technical & hardware support : Manuel Goepfert
Assistance : Marc-Olivier Méhu




SOURCES & CREDITS :

   NOAA       Earth
Advisory